createdAt,value
2019-03-29T00:00:32.085Z,0.00
2019-03-29T00:01:31.014Z,0.00
2019-03-29T00:02:31.009Z,0.00
2019-03-29T00:03:31.008Z,0.00
2019-03-29T00:04:31.001Z,0.00
2019-03-29T00:05:30.994Z,0.00
2019-03-29T00:06:30.991Z,0.00
2019-03-29T00:07:39.615Z,0.00
2019-03-29T00:08:30.980Z,0.00
2019-03-29T00:09:30.976Z,0.00
2019-03-29T00:10:30.971Z,0.00
2019-03-29T00:11:30.966Z,0.00
2019-03-29T00:12:31.060Z,0.00
2019-03-29T00:13:30.955Z,0.00
2019-03-29T00:14:30.951Z,0.00
2019-03-29T00:15:30.946Z,0.00
2019-03-29T00:16:30.956Z,0.00
2019-03-29T00:17:30.936Z,0.00
2019-03-29T00:18:30.930Z,0.00
2019-03-29T00:19:30.924Z,0.00
2019-03-29T00:20:30.920Z,0.00
2019-03-29T00:21:30.913Z,0.00
2019-03-29T00:22:31.009Z,0.00
2019-03-29T00:23:30.903Z,0.00
2019-03-29T00:24:30.898Z,0.00
2019-03-29T00:25:30.893Z,0.00
2019-03-29T00:26:30.887Z,0.00
2019-03-29T00:27:30.881Z,0.00
2019-03-29T00:28:30.877Z,0.00
2019-03-29T00:29:30.870Z,0.00
2019-03-29T00:30:30.865Z,0.00
2019-03-29T00:31:30.860Z,0.00
2019-03-29T00:32:31.248Z,0.00
2019-03-29T00:33:30.849Z,0.00
2019-03-29T00:34:30.845Z,0.00
2019-03-29T00:35:30.844Z,0.00
2019-03-29T00:36:30.834Z,0.00
2019-03-29T00:37:30.828Z,0.00
2019-03-29T00:38:30.823Z,0.00
2019-03-29T00:39:30.817Z,0.00
2019-03-29T00:40:30.812Z,0.00
2019-03-29T00:41:30.805Z,0.00
2019-03-29T00:42:30.800Z,0.00
2019-03-29T00:43:30.793Z,0.00
2019-03-29T00:44:30.789Z,0.00
2019-03-29T00:45:30.784Z,0.00
2019-03-29T00:46:30.778Z,0.00
2019-03-29T00:47:30.791Z,0.00
2019-03-29T00:48:30.766Z,0.00
2019-03-29T00:49:30.760Z,0.00
2019-03-29T00:50:30.756Z,0.00
2019-03-29T00:51:30.749Z,0.00
2019-03-29T00:52:30.743Z,0.00
2019-03-29T00:53:30.738Z,0.00
2019-03-29T00:54:30.731Z,0.00
2019-03-29T00:55:30.726Z,0.00
2019-03-29T00:56:30.721Z,0.00
2019-03-29T00:57:30.978Z,0.00
2019-03-29T00:58:30.708Z,0.00
2019-03-29T00:59:30.703Z,0.00
2019-03-29T01:00:31.641Z,0.00
2019-03-29T01:01:30.690Z,0.00
2019-03-29T01:02:30.685Z,0.00
2019-03-29T01:03:30.680Z,0.00
2019-03-29T01:04:30.673Z,0.00
2019-03-29T01:05:30.667Z,0.00
2019-03-29T01:06:30.661Z,0.00
2019-03-29T01:07:30.923Z,0.00
2019-03-29T01:08:30.651Z,0.00
2019-03-29T01:09:30.867Z,0.00
2019-03-29T01:10:30.638Z,0.00
2019-03-29T01:11:30.632Z,0.00
2019-03-29T01:12:30.626Z,0.00
2019-03-29T01:13:30.618Z,0.00
2019-03-29T01:14:30.613Z,0.00
2019-03-29T01:15:30.608Z,0.00
2019-03-29T01:16:30.602Z,0.00
2019-03-29T01:17:30.595Z,0.00
2019-03-29T01:18:30.590Z,0.00
2019-03-29T01:19:30.583Z,0.00
2019-03-29T01:20:30.578Z,0.00
2019-03-29T01:21:30.571Z,0.00
2019-03-29T01:22:31.324Z,0.00
2019-03-29T01:23:30.558Z,0.00
2019-03-29T01:24:30.553Z,0.00
2019-03-29T01:25:30.547Z,0.00
2019-03-29T01:26:30.542Z,0.00
2019-03-29T01:27:30.535Z,0.00
2019-03-29T01:28:30.530Z,0.00
2019-03-29T01:29:31.033Z,0.00
2019-03-29T01:30:30.529Z,0.00
2019-03-29T01:31:30.511Z,0.00
2019-03-29T01:32:30.505Z,0.00
2019-03-29T01:33:30.499Z,0.00
2019-03-29T01:34:30.493Z,0.00
2019-03-29T01:35:30.489Z,0.00
2019-03-29T01:36:30.481Z,0.00
2019-03-29T01:37:30.471Z,0.00
2019-03-29T01:38:30.466Z,0.00
2019-03-29T01:39:30.463Z,0.00
2019-03-29T01:40:30.455Z,0.00
2019-03-29T01:41:30.448Z,0.00
2019-03-29T01:42:30.443Z,0.00
2019-03-29T01:43:30.436Z,0.00
2019-03-29T01:44:30.430Z,0.00
2019-03-29T01:45:30.422Z,0.00
2019-03-29T01:46:30.417Z,0.00
2019-03-29T01:47:30.410Z,0.00
2019-03-29T01:48:30.405Z,0.00
2019-03-29T01:49:30.400Z,0.00
2019-03-29T01:50:30.391Z,0.00
2019-03-29T01:51:30.385Z,0.00
2019-03-29T01:52:31.580Z,0.00
2019-03-29T01:53:30.371Z,0.00
2019-03-29T01:54:30.397Z,0.00
2019-03-29T01:55:30.359Z,0.00
2019-03-29T01:56:30.353Z,0.00
2019-03-29T01:57:30.345Z,0.00
2019-03-29T01:58:30.340Z,0.00
2019-03-29T01:59:30.341Z,0.00
2019-03-29T02:00:30.326Z,0.00
2019-03-29T02:01:30.321Z,0.00
2019-03-29T02:02:30.313Z,0.00
2019-03-29T02:03:30.307Z,0.00
2019-03-29T02:04:30.302Z,0.00
2019-03-29T02:05:30.297Z,0.00
2019-03-29T02:06:30.288Z,0.00
2019-03-29T02:07:30.281Z,0.00
2019-03-29T02:08:35.579Z,0.00
2019-03-29T02:09:30.945Z,0.00
2019-03-29T02:10:30.262Z,0.00
2019-03-29T02:11:30.256Z,0.00
2019-03-29T02:12:30.250Z,0.00
2019-03-29T02:13:30.243Z,0.00
2019-03-29T02:14:30.237Z,0.00
2019-03-29T02:15:30.230Z,0.00
2019-03-29T02:16:30.223Z,0.00
2019-03-29T02:17:30.217Z,0.00
2019-03-29T02:18:30.209Z,0.00
2019-03-29T02:19:30.206Z,0.00
2019-03-29T02:20:30.200Z,0.00
2019-03-29T02:21:30.189Z,0.00
2019-03-29T02:22:30.183Z,0.00
2019-03-29T02:23:30.226Z,0.00
2019-03-29T02:24:30.169Z,0.00
2019-03-29T02:25:30.166Z,0.00
2019-03-29T02:26:30.157Z,0.00
2019-03-29T02:27:30.149Z,0.00
2019-03-29T02:28:30.143Z,0.00
2019-03-29T02:29:30.136Z,0.00
2019-03-29T02:30:31.986Z,0.00
2019-03-29T02:31:30.131Z,0.00
2019-03-29T02:32:30.121Z,0.00
2019-03-29T02:33:30.115Z,0.00
2019-03-29T02:34:30.103Z,0.00
2019-03-29T02:35:30.099Z,0.00
2019-03-29T02:36:30.096Z,0.00
2019-03-29T02:37:30.084Z,0.00
2019-03-29T02:38:30.078Z,0.00
2019-03-29T02:39:30.070Z,0.00
2019-03-29T02:40:30.087Z,0.00
2019-03-29T02:41:30.056Z,0.00
2019-03-29T02:42:30.052Z,0.00
2019-03-29T02:43:30.053Z,0.00
2019-03-29T02:44:30.039Z,0.00
2019-03-29T02:45:30.772Z,0.00
2019-03-29T02:46:30.025Z,0.00
2019-03-29T02:47:30.018Z,0.00
2019-03-29T02:48:30.010Z,0.00
2019-03-29T02:49:30.008Z,0.00
2019-03-29T02:50:29.997Z,0.00
2019-03-29T02:51:29.994Z,0.00
2019-03-29T02:52:29.983Z,0.00
2019-03-29T02:53:29.976Z,0.00
2019-03-29T02:54:29.970Z,0.00
2019-03-29T02:55:29.964Z,0.00
2019-03-29T02:56:29.957Z,0.00
2019-03-29T02:57:29.949Z,0.00
2019-03-29T02:58:29.946Z,0.00
2019-03-29T02:59:29.937Z,0.00
2019-03-29T03:00:29.930Z,0.00
2019-03-29T03:01:29.924Z,0.00
2019-03-29T03:02:29.916Z,0.00
2019-03-29T03:03:29.910Z,0.00
2019-03-29T03:04:29.912Z,0.00
2019-03-29T03:05:29.894Z,0.00
2019-03-29T03:06:29.890Z,0.00
2019-03-29T03:07:29.882Z,0.00
2019-03-29T03:08:32.898Z,0.00
2019-03-29T03:09:29.868Z,0.00
2019-03-29T03:10:29.860Z,0.00
2019-03-29T03:11:29.861Z,0.00
2019-03-29T03:12:29.848Z,0.00
2019-03-29T03:13:29.839Z,0.00
2019-03-29T03:14:29.834Z,0.00
2019-03-29T03:15:29.827Z,0.00
2019-03-29T03:16:29.823Z,0.00
2019-03-29T03:17:29.818Z,0.00
2019-03-29T03:18:29.811Z,0.00
2019-03-29T03:19:29.800Z,0.00
2019-03-29T03:20:29.792Z,0.00
2019-03-29T03:21:29.787Z,0.00
2019-03-29T03:22:29.779Z,0.00
2019-03-29T03:23:29.772Z,0.00
2019-03-29T03:24:29.773Z,0.00
2019-03-29T03:25:29.757Z,0.00
2019-03-29T03:26:29.754Z,0.00
2019-03-29T03:27:29.746Z,0.00
2019-03-29T03:28:29.736Z,0.00
2019-03-29T03:29:29.730Z,0.00
2019-03-29T03:30:29.724Z,0.00
2019-03-29T03:31:29.718Z,0.00
2019-03-29T03:32:29.712Z,0.00
2019-03-29T03:33:29.714Z,0.00
2019-03-29T03:34:29.696Z,0.00
2019-03-29T03:35:29.689Z,0.00
2019-03-29T03:36:29.683Z,0.00
2019-03-29T03:37:29.674Z,0.00
2019-03-29T03:38:29.667Z,0.00
2019-03-29T03:39:32.235Z,0.00
2019-03-29T03:40:29.687Z,0.00
2019-03-29T03:41:29.645Z,0.00
2019-03-29T03:42:29.638Z,0.00
2019-03-29T03:43:29.663Z,0.00
2019-03-29T03:44:29.625Z,0.00
2019-03-29T03:45:29.619Z,0.00
2019-03-29T03:46:29.622Z,0.00
2019-03-29T03:47:29.605Z,0.00
2019-03-29T03:48:29.600Z,0.00
2019-03-29T03:49:29.590Z,0.00
2019-03-29T03:50:29.585Z,0.00
2019-03-29T03:51:29.576Z,0.00
2019-03-29T03:52:29.570Z,0.00
2019-03-29T03:53:29.562Z,0.00
2019-03-29T03:54:29.555Z,0.00
2019-03-29T03:55:29.550Z,0.00
2019-03-29T03:56:29.542Z,0.00
2019-03-29T03:57:29.535Z,0.00
2019-03-29T03:58:29.530Z,0.00
2019-03-29T03:59:29.582Z,0.00
2019-03-29T04:00:29.514Z,0.00
2019-03-29T04:01:29.507Z,0.00
2019-03-29T04:02:29.499Z,0.00
2019-03-29T04:03:29.494Z,0.00
2019-03-29T04:04:29.485Z,0.00
2019-03-29T04:05:29.477Z,0.00
2019-03-29T04:06:29.474Z,0.00
2019-03-29T04:07:29.464Z,0.00
2019-03-29T04:08:29.459Z,0.00
2019-03-29T04:09:29.451Z,0.00
2019-03-29T04:10:29.443Z,0.00
2019-03-29T04:11:29.435Z,0.00
2019-03-29T04:12:29.427Z,0.00
2019-03-29T04:13:29.422Z,0.00
2019-03-29T04:14:29.413Z,0.00
2019-03-29T04:15:29.405Z,0.00
2019-03-29T04:16:29.399Z,0.00
2019-03-29T04:17:29.396Z,0.00
2019-03-29T04:18:29.390Z,0.00
2019-03-29T04:19:29.379Z,0.00
2019-03-29T04:20:29.372Z,0.00
2019-03-29T04:21:29.365Z,0.00
2019-03-29T04:22:29.380Z,0.00
2019-03-29T04:23:29.349Z,0.00
2019-03-29T04:24:29.347Z,0.00
2019-03-29T04:25:29.337Z,0.00
2019-03-29T04:26:29.328Z,0.00
2019-03-29T04:27:29.320Z,0.00
2019-03-29T04:28:29.340Z,0.00
2019-03-29T04:29:29.308Z,0.00
2019-03-29T04:30:29.300Z,0.00
2019-03-29T04:31:29.293Z,0.00
2019-03-29T04:32:29.285Z,0.00
2019-03-29T04:33:29.285Z,0.00
2019-03-29T04:34:29.270Z,0.00
2019-03-29T04:35:29.276Z,0.00
2019-03-29T04:36:29.257Z,0.00
2019-03-29T04:37:29.247Z,0.00
2019-03-29T04:38:29.240Z,0.00
2019-03-29T04:39:29.234Z,0.00
2019-03-29T04:40:29.228Z,0.00
2019-03-29T04:41:29.218Z,0.00
2019-03-29T04:42:29.212Z,4.00
2019-03-29T04:43:29.207Z,4.00
2019-03-29T04:44:29.197Z,0.00
2019-03-29T04:45:29.190Z,4.00
2019-03-29T04:46:29.184Z,0.00
2019-03-29T04:47:29.177Z,4.00
2019-03-29T04:48:29.170Z,4.00
2019-03-29T04:49:29.160Z,8.00
2019-03-29T04:50:29.155Z,8.00
2019-03-29T04:51:29.147Z,8.00
2019-03-29T04:52:29.141Z,12.00
2019-03-29T04:53:29.134Z,12.00
2019-03-29T04:54:29.125Z,16.00
2019-03-29T04:55:29.117Z,16.00
2019-03-29T04:56:29.111Z,16.00
2019-03-29T04:57:29.102Z,24.00
2019-03-29T04:58:29.096Z,24.00
2019-03-29T04:59:29.088Z,32.00
2019-03-29T05:00:29.082Z,36.00
2019-03-29T05:01:29.074Z,40.00
2019-03-29T05:02:29.109Z,52.00
2019-03-29T05:03:29.060Z,56.00
2019-03-29T05:04:29.053Z,64.00
2019-03-29T05:05:29.050Z,72.00
2019-03-29T05:06:29.039Z,80.00
2019-03-29T05:07:29.030Z,92.00
2019-03-29T05:08:29.025Z,104.00
2019-03-29T05:09:29.015Z,116.00
2019-03-29T05:10:29.011Z,128.00
2019-03-29T05:11:29.002Z,144.00
2019-03-29T05:12:28.994Z,156.00
2019-03-29T05:13:28.989Z,176.00
2019-03-29T05:14:28.983Z,188.00
2019-03-29T05:15:28.973Z,208.00
2019-03-29T05:16:28.999Z,224.00
2019-03-29T05:17:28.958Z,244.00
2019-03-29T05:18:28.950Z,264.00
2019-03-29T05:19:28.944Z,284.00
2019-03-29T05:20:28.935Z,312.00
2019-03-29T05:21:28.929Z,332.00
2019-03-29T05:22:28.923Z,356.00
2019-03-29T05:23:28.914Z,384.00
2019-03-29T05:24:28.907Z,408.00
2019-03-29T05:25:28.899Z,436.00
2019-03-29T05:26:28.893Z,464.00
2019-03-29T05:27:28.886Z,492.00
2019-03-29T05:28:28.878Z,520.00
2019-03-29T05:29:28.871Z,552.00
2019-03-29T05:30:28.862Z,588.00
2019-03-29T05:31:28.863Z,620.00
2019-03-29T05:32:28.848Z,652.00
2019-03-29T05:33:28.845Z,688.00
2019-03-29T05:34:28.834Z,716.00
2019-03-29T05:35:28.828Z,752.00
2019-03-29T05:36:28.820Z,784.00
2019-03-29T05:37:28.811Z,816.00
2019-03-29T05:38:28.804Z,848.00
2019-03-29T05:39:28.800Z,884.00
2019-03-29T05:40:34.996Z,916.00
2019-03-29T05:41:28.782Z,952.00
2019-03-29T05:42:28.783Z,984.00
2019-03-29T05:43:28.769Z,1020.00
2019-03-29T05:44:28.761Z,1052.00
2019-03-29T05:45:28.755Z,1084.00
2019-03-29T05:46:28.747Z,1120.00
2019-03-29T05:47:28.743Z,1152.00
2019-03-29T05:48:28.731Z,1188.00
2019-03-29T05:49:28.726Z,1220.00
2019-03-29T05:50:28.716Z,1256.00
2019-03-29T05:51:28.710Z,1288.00
2019-03-29T05:52:28.703Z,1324.00
2019-03-29T05:53:28.695Z,1364.00
2019-03-29T05:54:28.688Z,1400.00
2019-03-29T05:55:32.889Z,1436.00
2019-03-29T05:56:28.681Z,1464.00
2019-03-29T05:57:28.666Z,1496.00
2019-03-29T05:58:28.660Z,1528.00
2019-03-29T05:59:28.651Z,1560.00
2019-03-29T06:00:28.645Z,1596.00
2019-03-29T06:01:28.638Z,1628.00
2019-03-29T06:02:28.629Z,1664.00
2019-03-29T06:03:28.623Z,1700.00
2019-03-29T06:04:28.615Z,1736.00
2019-03-29T06:05:28.608Z,1768.00
2019-03-29T06:06:28.600Z,1796.00
2019-03-29T06:07:28.593Z,1824.00
2019-03-29T06:08:28.586Z,1852.00
2019-03-29T06:09:28.582Z,1884.00
2019-03-29T06:10:28.571Z,1916.00
2019-03-29T06:11:28.564Z,1952.00
2019-03-29T06:12:28.558Z,1984.00
2019-03-29T06:13:28.551Z,2016.00
2019-03-29T06:14:28.550Z,2052.00
2019-03-29T06:15:28.536Z,2084.00
2019-03-29T06:16:38.319Z,2124.00
2019-03-29T06:17:28.521Z,2156.00
2019-03-29T06:18:28.515Z,2188.00
2019-03-29T06:19:28.507Z,2236.00
2019-03-29T06:20:28.500Z,2280.00
2019-03-29T06:21:28.494Z,2324.00
2019-03-29T06:22:28.486Z,2368.00
2019-03-29T06:23:28.482Z,2412.00
2019-03-29T06:24:28.473Z,2452.00
2019-03-29T06:25:28.464Z,2496.00
2019-03-29T06:26:28.458Z,2524.00
2019-03-29T06:27:28.449Z,2552.00
2019-03-29T06:28:29.977Z,2588.00
2019-03-29T06:29:28.437Z,2632.00
2019-03-29T06:30:28.431Z,2664.00
2019-03-29T06:31:28.422Z,2692.00
2019-03-29T06:32:28.416Z,2728.00
2019-03-29T06:33:28.409Z,2756.00
2019-03-29T06:34:28.402Z,2800.00
2019-03-29T06:35:28.395Z,2836.00
2019-03-29T06:36:28.389Z,2872.00
2019-03-29T06:37:28.380Z,2916.00
2019-03-29T06:38:28.376Z,2960.00
2019-03-29T06:39:28.368Z,2980.00
2019-03-29T06:40:28.361Z,2996.00
2019-03-29T06:41:28.354Z,3012.00
2019-03-29T06:42:28.346Z,3036.00
2019-03-29T06:43:28.338Z,3060.00
2019-03-29T06:44:28.333Z,3096.00
2019-03-29T06:45:28.325Z,3132.00
2019-03-29T06:46:28.320Z,3168.00
2019-03-29T06:47:28.312Z,3192.00
2019-03-29T06:48:28.305Z,3220.00
2019-03-29T06:49:28.299Z,3248.00
2019-03-29T06:50:28.291Z,3276.00
2019-03-29T06:51:28.285Z,3312.00
2019-03-29T06:52:28.278Z,3336.00
2019-03-29T06:53:28.272Z,3352.00
2019-03-29T06:54:28.265Z,3384.00
2019-03-29T06:55:28.260Z,3408.00
2019-03-29T06:56:28.253Z,3428.00
2019-03-29T06:57:28.245Z,3456.00
2019-03-29T06:58:28.240Z,3476.00
2019-03-29T06:59:28.232Z,3496.00
2019-03-29T07:00:28.228Z,3516.00
2019-03-29T07:01:28.222Z,3540.00
2019-03-29T07:02:28.214Z,3556.00
2019-03-29T07:03:28.209Z,3576.00
2019-03-29T07:04:28.203Z,3596.00
2019-03-29T07:05:28.191Z,3612.00
2019-03-29T07:06:30.543Z,3632.00
2019-03-29T07:07:28.184Z,3652.00
2019-03-29T07:08:28.173Z,3668.00
2019-03-29T07:09:28.170Z,3692.00
2019-03-29T07:10:28.161Z,3720.00
2019-03-29T07:11:28.154Z,3744.00
2019-03-29T07:12:28.149Z,3776.00
2019-03-29T07:13:28.144Z,3800.00
2019-03-29T07:14:28.137Z,3820.00
2019-03-29T07:15:28.129Z,3852.00
2019-03-29T07:16:28.124Z,3872.00
2019-03-29T07:17:28.116Z,3904.00
2019-03-29T07:18:28.111Z,3936.00
2019-03-29T07:19:28.104Z,3960.00
2019-03-29T07:20:28.101Z,3980.00
2019-03-29T07:21:28.092Z,4004.00
2019-03-29T07:22:28.086Z,4036.00
2019-03-29T07:23:28.082Z,4072.00
2019-03-29T07:24:28.074Z,4096.00
2019-03-29T07:25:28.067Z,4124.00
2019-03-29T07:26:28.064Z,4148.00
2019-03-29T07:27:28.056Z,4180.00
2019-03-29T07:28:28.051Z,4208.00
2019-03-29T07:29:28.045Z,4224.00
2019-03-29T07:30:28.039Z,4240.00
2019-03-29T07:31:28.035Z,4284.00
2019-03-29T07:32:28.029Z,4328.00
2019-03-29T07:33:28.020Z,4364.00
2019-03-29T07:34:28.015Z,4396.00
2019-03-29T07:35:28.009Z,4408.00
2019-03-29T07:36:28.005Z,4432.00
2019-03-29T07:37:27.997Z,4464.00
2019-03-29T07:38:27.995Z,4492.00
2019-03-29T07:39:27.987Z,4516.00
2019-03-29T07:40:28.035Z,4564.00
2019-03-29T07:41:32.052Z,4584.00
2019-03-29T07:42:27.968Z,4604.00
2019-03-29T07:43:27.963Z,4628.00
2019-03-29T07:44:27.957Z,4660.00
2019-03-29T07:45:27.952Z,4688.00
2019-03-29T07:46:27.947Z,4704.00
2019-03-29T07:47:27.941Z,4732.00
2019-03-29T07:48:27.935Z,4736.00
2019-03-29T07:49:27.929Z,4744.00
2019-03-29T07:50:27.923Z,4748.00
2019-03-29T07:51:27.918Z,4760.00
2019-03-29T07:52:27.912Z,4776.00
2019-03-29T07:53:27.906Z,4812.00
2019-03-29T07:54:27.901Z,4840.00
2019-03-29T07:55:27.898Z,4864.00
2019-03-29T07:56:27.891Z,4872.00
2019-03-29T07:57:27.890Z,4888.00
2019-03-29T07:58:27.889Z,4916.00
2019-03-29T07:59:27.876Z,4940.00
2019-03-29T08:00:27.870Z,4968.00
2019-03-29T08:01:27.866Z,4984.00
2019-03-29T08:02:28.941Z,5008.00
2019-03-29T08:03:27.854Z,5004.00
2019-03-29T08:04:27.857Z,5028.00
2019-03-29T08:05:27.847Z,5064.00
2019-03-29T08:06:27.840Z,5104.00
2019-03-29T08:07:28.896Z,5104.00
2019-03-29T08:08:32.240Z,5100.00
2019-03-29T08:09:27.822Z,5172.00
2019-03-29T08:10:30.972Z,5252.00
2019-03-29T08:11:28.370Z,5316.00
2019-03-29T08:12:27.842Z,5360.00
2019-03-29T08:13:27.806Z,5372.00
2019-03-29T08:14:27.797Z,5388.00
2019-03-29T08:15:27.793Z,5420.00
2019-03-29T08:16:27.789Z,5456.00
2019-03-29T08:17:27.783Z,5452.00
2019-03-29T08:18:27.777Z,5468.00
2019-03-29T08:19:27.774Z,5492.00
2019-03-29T08:20:44.420Z,5484.00
2019-03-29T08:21:27.768Z,5480.00
2019-03-29T08:22:27.765Z,5476.00
2019-03-29T08:23:28.942Z,5500.00
2019-03-29T08:24:27.751Z,5532.00
2019-03-29T08:25:27.753Z,5580.00
2019-03-29T08:26:27.741Z,5648.00
2019-03-29T08:27:27.736Z,5688.00
2019-03-29T08:28:27.730Z,5704.00
2019-03-29T08:29:30.978Z,5744.00
2019-03-29T08:30:27.737Z,5776.00
2019-03-29T08:31:27.720Z,5808.00
2019-03-29T08:32:27.714Z,5852.00
2019-03-29T08:33:27.707Z,5864.00
2019-03-29T08:34:27.704Z,5848.00
2019-03-29T08:35:27.702Z,5852.00
2019-03-29T08:36:27.698Z,5848.00
2019-03-29T08:37:27.730Z,5864.00
2019-03-29T08:38:27.686Z,5844.00
2019-03-29T08:39:28.504Z,5824.00
2019-03-29T08:40:27.682Z,5856.00
2019-03-29T08:41:27.672Z,5924.00
2019-03-29T08:42:27.670Z,5996.00
2019-03-29T08:43:27.665Z,6060.00
2019-03-29T08:44:27.661Z,6116.00
2019-03-29T08:45:27.659Z,6172.00
2019-03-29T08:46:27.658Z,6212.00
2019-03-29T08:47:27.657Z,6260.00
2019-03-29T08:48:27.648Z,6308.00
2019-03-29T08:49:27.640Z,6388.00
2019-03-29T08:50:27.634Z,6476.00
2019-03-29T08:51:27.630Z,6616.00
2019-03-29T08:52:27.630Z,18112.00
2019-03-29T08:53:27.697Z,54656.00
2019-03-29T08:54:27.622Z,79616.00
2019-03-29T08:55:27.615Z,78432.00
2019-03-29T08:56:27.612Z,79584.00
2019-03-29T08:57:27.608Z,78368.00
2019-03-29T08:58:27.607Z,76320.00
2019-03-29T08:59:27.608Z,74720.00
2019-03-29T09:00:27.602Z,70400.00
2019-03-29T09:01:27.600Z,55968.00
2019-03-29T09:02:27.599Z,35680.00
2019-03-29T09:03:27.600Z,28512.00
2019-03-29T09:04:27.600Z,28352.00
2019-03-29T09:05:27.599Z,28256.00
2019-03-29T09:06:30.041Z,28288.00
2019-03-29T09:07:28.136Z,28480.00
2019-03-29T09:08:27.607Z,28608.00
2019-03-29T09:09:27.607Z,28800.00
2019-03-29T09:10:27.611Z,29248.00
2019-03-29T09:11:27.613Z,29376.00
2019-03-29T09:12:27.619Z,29664.00
2019-03-29T09:13:27.623Z,30176.00
2019-03-29T09:14:31.042Z,30240.00
2019-03-29T09:15:27.632Z,30272.00
2019-03-29T09:16:27.636Z,30656.00
2019-03-29T09:17:27.643Z,30560.00
2019-03-29T09:18:27.647Z,30848.00
2019-03-29T09:19:27.655Z,30560.00
2019-03-29T09:20:27.660Z,30432.00
2019-03-29T09:21:27.668Z,30688.00
2019-03-29T09:22:27.672Z,30656.00
2019-03-29T09:23:30.120Z,30432.00
2019-03-29T09:24:27.685Z,30336.00
2019-03-29T09:25:27.692Z,30016.00
2019-03-29T09:26:27.701Z,29984.00
2019-03-29T09:27:27.710Z,29856.00
2019-03-29T09:28:27.717Z,29376.00
2019-03-29T09:29:27.727Z,29248.00
2019-03-29T09:30:27.733Z,28992.00
2019-03-29T09:31:27.741Z,29120.00
2019-03-29T09:32:27.750Z,29472.00
2019-03-29T09:33:27.759Z,29984.00
2019-03-29T09:34:28.941Z,31008.00
2019-03-29T09:35:27.787Z,32608.00
2019-03-29T09:36:27.784Z,33184.00
2019-03-29T09:37:27.832Z,36672.00
2019-03-29T09:38:27.811Z,42848.00
2019-03-29T09:39:27.813Z,46784.00
2019-03-29T09:40:27.823Z,48224.00
2019-03-29T09:41:27.831Z,48768.00
2019-03-29T09:42:29.628Z,46336.00
2019-03-29T09:43:27.851Z,42304.00
2019-03-29T09:44:27.860Z,38976.00
2019-03-29T09:45:27.872Z,38144.00
2019-03-29T09:46:27.881Z,37888.00
2019-03-29T09:47:27.890Z,38304.00
2019-03-29T09:48:27.914Z,35808.00
2019-03-29T09:49:27.909Z,33216.00
2019-03-29T09:50:27.919Z,36672.00
2019-03-29T09:51:27.980Z,37952.00
2019-03-29T09:52:27.942Z,34272.00
2019-03-29T09:53:27.953Z,33056.00
2019-03-29T09:54:27.966Z,33184.00
2019-03-29T09:55:27.973Z,33984.00
2019-03-29T09:56:38.502Z,33504.00
2019-03-29T09:57:37.351Z,32256.00
2019-03-29T09:58:28.005Z,31680.00
2019-03-29T09:59:28.018Z,32672.00
2019-03-29T10:00:28.026Z,31456.00
2019-03-29T10:01:28.163Z,31680.00
2019-03-29T10:02:28.051Z,33920.00
2019-03-29T10:03:28.062Z,34208.00
2019-03-29T10:04:28.072Z,34656.00
2019-03-29T10:05:31.113Z,35328.00
2019-03-29T10:06:28.094Z,34304.00
2019-03-29T10:07:28.104Z,33120.00
2019-03-29T10:08:28.118Z,32416.00
2019-03-29T10:09:28.125Z,32576.00
2019-03-29T10:10:28.136Z,32704.00
2019-03-29T10:11:28.147Z,32320.00
2019-03-29T10:12:42.346Z,32256.00
2019-03-29T10:13:28.172Z,32800.00
2019-03-29T10:14:28.181Z,33056.00
2019-03-29T10:15:28.191Z,32928.00
2019-03-29T10:16:28.202Z,35136.00
2019-03-29T10:17:28.213Z,38016.00
2019-03-29T10:18:28.223Z,38432.00
2019-03-29T10:19:28.236Z,41216.00
2019-03-29T10:20:28.245Z,42368.00
2019-03-29T10:21:28.256Z,44064.00
2019-03-29T10:22:28.293Z,46304.00
2019-03-29T10:23:28.278Z,49408.00
2019-03-29T10:24:28.289Z,52992.00
2019-03-29T10:25:28.299Z,58848.00
2019-03-29T10:26:28.308Z,63744.00
2019-03-29T10:27:28.326Z,68288.00
2019-03-29T10:28:28.336Z,65152.00
2019-03-29T10:29:28.343Z,63136.00
2019-03-29T10:30:28.352Z,61504.00
2019-03-29T10:31:32.418Z,55488.00
2019-03-29T10:32:28.373Z,47264.00
2019-03-29T10:33:28.384Z,41152.00
2019-03-29T10:34:28.394Z,37024.00
2019-03-29T10:35:28.404Z,34016.00
2019-03-29T10:36:28.417Z,33152.00
2019-03-29T10:37:28.424Z,32704.00
2019-03-29T10:38:28.436Z,30720.00
2019-03-29T10:39:28.447Z,27872.00
2019-03-29T10:40:28.458Z,24384.00
2019-03-29T10:41:28.467Z,21216.00
2019-03-29T10:42:28.479Z,18464.00
2019-03-29T10:43:28.489Z,16344.00
2019-03-29T10:44:28.500Z,14864.00
2019-03-29T10:45:28.509Z,13712.00
2019-03-29T10:46:28.521Z,13532.00
2019-03-29T10:47:42.339Z,13064.00
2019-03-29T10:48:28.543Z,12540.00
2019-03-29T10:49:28.551Z,11920.00
2019-03-29T10:50:28.559Z,11820.00
2019-03-29T10:51:28.570Z,11344.00
2019-03-29T10:52:28.582Z,10836.00
2019-03-29T10:53:28.882Z,9816.00
2019-03-29T10:54:28.600Z,10032.00
2019-03-29T10:55:28.611Z,10480.00
2019-03-29T10:56:34.411Z,10132.00
2019-03-29T10:57:28.725Z,9612.00
2019-03-29T10:58:28.636Z,9488.00
2019-03-29T10:59:28.646Z,9856.00
2019-03-29T11:00:28.655Z,10276.00
2019-03-29T11:01:28.662Z,9820.00
2019-03-29T11:02:28.668Z,9084.00
2019-03-29T11:03:28.937Z,9020.00
2019-03-29T11:04:31.677Z,9484.00
2019-03-29T11:05:28.694Z,9496.00
2019-03-29T11:06:28.704Z,8680.00
2019-03-29T11:07:28.712Z,8040.00
2019-03-29T11:08:28.716Z,8240.00
2019-03-29T11:09:28.722Z,8696.00
2019-03-29T11:10:28.733Z,7268.00
2019-03-29T11:11:28.738Z,8020.00
2019-03-29T11:12:28.744Z,8172.00
2019-03-29T11:13:28.750Z,7820.00
2019-03-29T11:14:28.759Z,7744.00
2019-03-29T11:15:28.765Z,7560.00
2019-03-29T11:16:28.778Z,8364.00
2019-03-29T11:17:28.777Z,7976.00
2019-03-29T11:18:28.784Z,8964.00
2019-03-29T11:19:28.789Z,9164.00
2019-03-29T11:20:28.794Z,9280.00
2019-03-29T11:21:28.800Z,9100.00
2019-03-29T11:22:28.804Z,8320.00
2019-03-29T11:23:28.811Z,7944.00
2019-03-29T11:24:28.818Z,8080.00
2019-03-29T11:25:28.822Z,8236.00
2019-03-29T11:26:28.827Z,8176.00
2019-03-29T11:27:28.835Z,8028.00
2019-03-29T11:28:28.838Z,7836.00
2019-03-29T11:29:28.841Z,7532.00
2019-03-29T11:30:41.538Z,7504.00
2019-03-29T11:31:28.851Z,7468.00
2019-03-29T11:32:28.859Z,7312.00
2019-03-29T11:33:28.861Z,7256.00
2019-03-29T11:34:28.867Z,7888.00
2019-03-29T11:35:28.872Z,8016.00
2019-03-29T11:36:28.879Z,7896.00
2019-03-29T11:37:28.880Z,7608.00
2019-03-29T11:38:28.885Z,7244.00
2019-03-29T11:39:28.889Z,6980.00
2019-03-29T11:40:28.894Z,6832.00
2019-03-29T11:41:28.896Z,7080.00
2019-03-29T11:42:28.902Z,7400.00
2019-03-29T11:43:28.908Z,7776.00
2019-03-29T11:44:30.169Z,7988.00
2019-03-29T11:45:28.915Z,7948.00
2019-03-29T11:46:28.916Z,8120.00
2019-03-29T11:47:28.923Z,7900.00
2019-03-29T11:48:29.701Z,7260.00
2019-03-29T11:49:28.929Z,6696.00
2019-03-29T11:50:29.285Z,6548.00
2019-03-29T11:51:28.946Z,6496.00
2019-03-29T11:52:28.940Z,6488.00
2019-03-29T11:53:28.946Z,6420.00
2019-03-29T11:54:28.946Z,6412.00
2019-03-29T11:55:28.951Z,6364.00
2019-03-29T11:56:28.954Z,6376.00
2019-03-29T11:57:28.957Z,6376.00
2019-03-29T11:58:28.961Z,6308.00
2019-03-29T11:59:28.962Z,6288.00
2019-03-29T12:00:28.970Z,6312.00
2019-03-29T12:01:28.969Z,6320.00
2019-03-29T12:02:31.567Z,6320.00
2019-03-29T12:03:28.977Z,6336.00
2019-03-29T12:04:28.979Z,6328.00
2019-03-29T12:05:28.980Z,6304.00
2019-03-29T12:06:28.987Z,6284.00
2019-03-29T12:07:28.987Z,6264.00
2019-03-29T12:08:28.990Z,6244.00
2019-03-29T12:09:28.992Z,6256.00
2019-03-29T12:10:28.998Z,6244.00
2019-03-29T12:11:28.997Z,6208.00
2019-03-29T12:12:28.999Z,6192.00
2019-03-29T12:13:40.478Z,6216.00
2019-03-29T12:14:29.004Z,6232.00
2019-03-29T12:15:29.006Z,6220.00
2019-03-29T12:16:29.008Z,6184.00
2019-03-29T12:17:29.010Z,6164.00
2019-03-29T12:18:29.014Z,6100.00
2019-03-29T12:19:29.014Z,6036.00
2019-03-29T12:20:29.017Z,6072.00
2019-03-29T12:21:29.019Z,6088.00
2019-03-29T12:22:29.023Z,6072.00
2019-03-29T12:23:29.026Z,5972.00
2019-03-29T12:24:29.029Z,6072.00
2019-03-29T12:25:29.031Z,6052.00
2019-03-29T12:26:29.030Z,5996.00
2019-03-29T12:27:29.031Z,5920.00
2019-03-29T12:28:29.034Z,5840.00
2019-03-29T12:29:29.036Z,5852.00
2019-03-29T12:30:31.980Z,5812.00